Time;durP1;ratioP1;P1;durP2;ratioP2;P2;SDS_P1;SDS_P2;PMS_P1;PMS_P2;Temp;Humidity;BMP_temperature;BMP_pressure;BME280_temperature;BME280_humidity;BME280_pressure;Samples;Min_cycle;Max_cycle;Signal;HPM_P1;HPM_P2
2022/03/12 00:02:23;;;;;;;0.00;0.00;;;;;;;;;;5001196;28;20026;-76
2022/03/12 00:04:49;;;;;;;0.00;0.00;;;;;;;;;;4999971;28;20042;-75
2022/03/12 00:07:16;;;;;;;0.00;0.00;;;;;;;;;;5001618;28;20033;-76
2022/03/12 00:09:43;;;;;;;0.00;0.00;;;;;;;;;;4999625;28;20034;-76
2022/03/12 00:12:11;;;;;;;0.00;0.00;;;;;;;;;;5001096;28;20072;-76
2022/03/12 00:14:37;;;;;;;0.00;0.00;;;;;;;;;;5001070;28;20034;-76
2022/03/12 00:17:03;;;;;;;0.00;0.00;;;;;;;;;;5000800;28;20026;-76
2022/03/12 00:19:31;;;;;;;0.00;0.00;;;;;;;;;;5001407;28;20080;-76
2022/03/12 00:21:58;;;;;;;0.00;0.00;;;;;;;;;;5001103;28;20088;-76
2022/03/12 00:24:27;;;;;;;0.00;0.00;;;;;;;;;;5000438;28;20034;-76
2022/03/12 00:26:53;;;;;;;0.00;0.00;;;;;;;;;;5001187;28;20030;-76
2022/03/12 00:29:20;;;;;;;0.00;0.00;;;;;;;;;;5003442;28;20037;-76
2022/03/12 00:31:49;;;;;;;0.00;0.00;;;;;;;;;;5001697;28;20823;-76
2022/03/12 00:34:15;;;;;;;0.00;0.00;;;;;;;;;;5000954;28;20045;-76
2022/03/12 00:36:42;;;;;;;0.00;0.00;;;;;;;;;;5003457;28;20030;-76
2022/03/12 00:39:09;;;;;;;0.00;0.00;;;;;;;;;;5003622;28;20284;-76
2022/03/12 00:41:36;;;;;;;0.00;0.00;;;;;;;;;;4997733;28;20030;-76
2022/03/12 00:44:02;;;;;;;0.00;0.00;;;;;;;;;;5002187;28;20172;-76
2022/03/12 00:46:29;;;;;;;0.00;0.00;;;;;;;;;;5003571;28;20045;-76
2022/03/12 00:48:55;;;;;;;0.00;0.00;;;;;;;;;;4999788;28;20501;-76
2022/03/12 00:51:21;;;;;;;0.00;0.00;;;;;;;;;;5001348;28;20553;-76
2022/03/12 00:53:47;;;;;;;0.00;0.00;;;;;;;;;;5004487;28;20040;-76
2022/03/12 00:56:13;;;;;;;0.00;0.00;;;;;;;;;;4999491;28;20379;-76
2022/03/12 00:58:45;;;;;;;0.00;0.00;;;;;;;;;;5004789;28;20056;-76
2022/03/12 01:01:11;;;;;;;0.00;0.00;;;;;;;;;;5004424;28;20033;-76
2022/03/12 01:03:37;;;;;;;0.00;0.00;;;;;;;;;;5005154;28;20080;-75
2022/03/12 01:06:04;;;;;;;0.00;0.00;;;;;;;;;;5004989;28;20041;-76
2022/03/12 01:08:31;;;;;;;0.00;0.00;;;;;;;;;;5004543;28;20030;-75
2022/03/12 01:10:59;;;;;;;0.00;0.00;;;;;;;;;;5000572;28;20104;-76
2022/03/12 01:13:25;;;;;;;0.00;0.00;;;;;;;;;;4993059;28;20425;-76
2022/03/12 01:15:51;;;;;;;0.00;0.00;;;;;;;;;;5000264;28;20048;-76
2022/03/12 01:18:19;;;;;;;0.00;0.00;;;;;;;;;;5004515;28;20021;-76
2022/03/12 01:20:46;;;;;;;0.00;0.00;;;;;;;;;;5004413;28;20058;-76
2022/03/12 01:23:13;;;;;;;0.00;0.00;;;;;;;;;;5001919;28;20030;-76
2022/03/12 01:25:40;;;;;;;0.00;0.00;;;;;;;;;;5001373;28;20060;-76
2022/03/12 01:28:07;;;;;;;0.00;0.00;;;;;;;;;;4999563;28;20039;-76
2022/03/12 01:30:34;;;;;;;0.00;0.00;;;;;;;;;;5002647;28;20144;-76
2022/03/12 01:33:00;;;;;;;0.00;0.00;;;;;;;;;;5002490;28;20116;-76
2022/03/12 01:35:26;;;;;;;0.00;0.00;;;;;;;;;;5002740;28;20979;-76
2022/03/12 01:37:53;;;;;;;0.00;0.00;;;;;;;;;;4998795;28;20089;-76
2022/03/12 01:40:19;;;;;;;0.00;0.00;;;;;;;;;;5002023;28;20061;-76
2022/03/12 01:42:46;;;;;;;0.00;0.00;;;;;;;;;;5003380;28;20029;-76
2022/03/12 01:45:12;;;;;;;0.00;0.00;;;;;;;;;;5000781;28;20144;-76
2022/03/12 01:47:40;;;;;;;0.00;0.00;;;;;;;;;;5003547;28;20410;-76
2022/03/12 01:50:06;;;;;;;0.00;0.00;;;;;;;;;;5004570;28;20044;-76
2022/03/12 01:52:32;;;;;;;0.00;0.00;;;;;;;;;;4999743;28;20030;-76
2022/03/12 01:54:59;;;;;;;0.00;0.00;;;;;;;;;;5002449;28;20042;-76
2022/03/12 01:57:25;;;;;;;0.00;0.00;;;;;;;;;;5003396;28;20096;-76
2022/03/12 01:59:51;;;;;;;0.00;0.00;;;;;;;;;;5003478;28;20469;-75
2022/03/12 02:02:17;;;;;;;0.00;0.00;;;;;;;;;;5003916;28;20092;-76
2022/03/12 02:04:52;;;;;;;0.00;0.00;;;;;;;;;;5003359;28;20650;-76
2022/03/12 02:07:21;;;;;;;0.00;0.00;;;;;;;;;;5003140;28;20040;-76
2022/03/12 02:09:47;;;;;;;0.00;0.00;;;;;;;;;;5003178;28;20037;-76
2022/03/12 02:12:13;;;;;;;0.00;0.00;;;;;;;;;;5003684;28;20109;-76
2022/03/12 02:14:39;;;;;;;0.00;0.00;;;;;;;;;;4999437;28;20076;-76
2022/03/12 02:17:08;;;;;;;0.00;0.00;;;;;;;;;;5003767;28;20033;-76
2022/03/12 02:19:34;;;;;;;0.00;0.00;;;;;;;;;;5002267;28;20042;-76
2022/03/12 02:22:05;;;;;;;0.00;0.00;;;;;;;;;;5003804;28;20105;-76
2022/03/12 02:24:32;;;;;;;0.00;0.00;;;;;;;;;;5003660;28;20026;-76
2022/03/12 02:27:00;;;;;;;0.00;0.00;;;;;;;;;;5002792;28;20045;-76
2022/03/12 02:29:26;;;;;;;0.00;0.00;;;;;;;;;;5003537;28;20620;-76
2022/03/12 02:31:57;;;;;;;0.00;0.00;;;;;;;;;;5003513;28;20037;-77
2022/03/12 02:34:26;;;;;;;0.00;0.00;;;;;;;;;;5001579;28;20037;-76
2022/03/12 02:36:54;;;;;;;0.00;0.00;;;;;;;;;;5000227;28;20038;-76
2022/03/12 02:39:21;;;;;;;0.00;0.00;;;;;;;;;;5002701;28;20049;-76
2022/03/12 02:41:48;;;;;;;0.00;0.00;;;;;;;;;;4999078;28;20038;-76
2022/03/12 02:44:17;;;;;;;;;;;;;;;;;;5003388;28;20022;-76
2022/03/12 02:46:43;;;;;;;0.00;0.00;;;;;;;;;;5000076;28;19917;-77
2022/03/12 02:49:09;;;;;;;0.00;0.00;;;;;;;;;;4998048;28;20414;-75
2022/03/12 02:51:35;;;;;;;0.00;0.00;;;;;;;;;;4999732;28;20498;-75
2022/03/12 02:54:01;;;;;;;0.00;0.00;;;;;;;;;;5003194;28;20277;-76
2022/03/12 02:56:29;;;;;;;0.00;0.00;;;;;;;;;;5003070;28;20034;-76
2022/03/12 02:58:55;;;;;;;0.00;0.00;;;;;;;;;;5002545;28;20046;-75
2022/03/12 03:01:26;;;;;;;0.00;0.00;;;;;;;;;;5003338;28;20057;-75
2022/03/12 03:03:53;;;;;;;0.00;0.00;;;;;;;;;;4998763;28;20022;-74
2022/03/12 03:06:20;;;;;;;0.00;0.00;;;;;;;;;;5002939;28;20034;-75
2022/03/12 03:08:46;;;;;;;0.00;0.00;;;;;;;;;;5003374;28;20036;-75
2022/03/12 03:11:15;;;;;;;0.00;0.00;;;;;;;;;;5003493;28;20141;-75
2022/03/12 03:13:45;;;;;;;0.00;0.00;;;;;;;;;;5002410;28;20026;-75
2022/03/12 03:16:24;;;;;;;0.00;0.00;;;;;;;;;;5002287;28;20038;-76
2022/03/12 03:18:51;;;;;;;0.00;0.00;;;;;;;;;;5001560;28;20026;-76
2022/03/12 03:21:19;;;;;;;0.00;0.00;;;;;;;;;;5000699;28;20033;-76
2022/03/12 03:23:45;;;;;;;0.00;0.00;;;;;;;;;;5000978;28;20096;-75
2022/03/12 03:26:11;;;;;;;0.00;0.00;;;;;;;;;;5002967;28;20723;-75
2022/03/12 03:28:37;;;;;;;0.00;0.00;;;;;;;;;;5002215;28;20776;-75
2022/03/12 03:31:07;;;;;;;0.00;0.00;;;;;;;;;;5002216;28;20030;-75
2022/03/12 03:33:33;;;;;;;0.00;0.00;;;;;;;;;;5002117;28;20066;-75
2022/03/12 03:35:59;;;;;;;0.00;0.00;;;;;;;;;;5001846;28;20824;-75
2022/03/12 03:38:26;;;;;;;0.00;0.00;;;;;;;;;;4997676;28;20649;-75
2022/03/12 03:40:52;;;;;;;0.00;0.00;;;;;;;;;;5002292;28;20030;-74
2022/03/12 03:43:19;;;;;;;0.00;0.00;;;;;;;;;;5001782;28;20069;-75
2022/03/12 03:45:46;;;;;;;0.00;0.00;;;;;;;;;;5001167;28;20038;-75
2022/03/12 03:48:14;;;;;;;0.00;0.00;;;;;;;;;;5001007;28;20111;-75
2022/03/12 03:50:42;;;;;;;0.00;0.00;;;;;;;;;;4999915;28;20042;-75
2022/03/12 03:53:10;;;;;;;0.00;0.00;;;;;;;;;;4998652;28;20107;-75
2022/03/12 03:55:36;;;;;;;0.00;0.00;;;;;;;;;;4993291;28;20034;-76
2022/03/12 03:58:03;;;;;;;0.00;0.00;;;;;;;;;;5001273;28;20405;-74
2022/03/12 04:00:31;;;;;;;0.00;0.00;;;;;;;;;;5001177;28;20062;-75
2022/03/12 04:03:04;;;;;;;;;;;;;;;;;;4998963;28;20178;-75
2022/03/12 04:05:30;;;;;;;;;;;;;;;;;;5006556;28;19982;-75
2022/03/12 04:07:56;;;;;;;;;;;;;;;;;;5006695;28;20377;-75
2022/03/12 04:10:23;;;;;;;;;;;;;;;;;;5006117;28;20014;-76
2022/03/12 04:12:49;;;;;;;;;;;;;;;;;;5005798;28;20068;-77
2022/03/12 04:15:16;;;;;;;;;;;;;;;;;;5006571;28;20010;-76
2022/03/12 04:17:43;;;;;;;;;;;;;;;;;;5005585;28;19990;-76
2022/03/12 04:20:09;;;;;;;;;;;;;;;;;;5003979;28;19986;-77
2022/03/12 04:22:35;;;;;;;;;;;;;;;;;;5005610;28;19994;-75
2022/03/12 04:25:01;;;;;;;;;;;;;;;;;;5004649;28;19990;-76
2022/03/12 04:27:28;;;;;;;;;;;;;;;;;;4994322;28;20001;-76
2022/03/12 04:29:54;;;;;;;;;;;;;;;;;;4998132;28;20238;-75
2022/03/12 04:32:20;;;;;;;;;;;;;;;;;;5000417;28;20453;-74
2022/03/12 04:34:46;;;;;;;;;;;;;;;;;;5005849;28;20010;-75
2022/03/12 04:37:12;;;;;;;;;;;;;;;;;;5005803;28;19995;-75
2022/03/12 04:39:39;;;;;;;;;;;;;;;;;;5005871;28;20068;-74
2022/03/12 04:42:05;;;;;;;;;;;;;;;;;;5006242;28;19994;-75
2022/03/12 04:44:31;;;;;;;;;;;;;;;;;;5005725;28;20001;-75
2022/03/12 04:46:56;;;;;;;;;;;;;;;;;;5004180;28;20536;-75
2022/03/12 04:49:23;;;;;;;;;;;;;;;;;;5005467;28;20389;-75
2022/03/12 04:51:49;;;;;;;;;;;;;;;;;;5002667;28;20502;-75
2022/03/12 04:54:15;;;;;;;;;;;;;;;;;;5002305;28;20014;-75
2022/03/12 04:56:40;;;;;;;;;;;;;;;;;;5004288;28;19990;-75
2022/03/12 04:59:06;;;;;;;;;;;;;;;;;;5005389;28;20014;-75
2022/03/12 05:01:32;;;;;;;;;;;;;;;;;;5001989;28;20440;-75
2022/03/12 05:03:58;;;;;;;;;;;;;;;;;;5004763;28;19990;-74
2022/03/12 05:06:26;;;;;;;;;;;;;;;;;;5005068;28;20022;-83
2022/03/12 05:08:53;;;;;;;;;;;;;;;;;;5004102;28;19993;-83
2022/03/12 05:11:19;;;;;;;;;;;;;;;;;;5000855;28;20422;-83
2022/03/12 05:13:45;;;;;;;;;;;;;;;;;;5003038;28;19990;-83
2022/03/12 05:16:13;;;;;;;;;;;;;;;;;;5004934;28;20010;-83
2022/03/12 05:18:40;;;;;;;;;;;;;;;;;;5003888;28;19997;-83
2022/03/12 05:21:06;;;;;;;;;;;;;;;;;;5004917;28;20378;-83
2022/03/12 05:23:32;;;;;;;;;;;;;;;;;;5005336;28;19990;-83
2022/03/12 05:25:58;;;;;;;;;;;;;;;;;;5005172;28;19987;-81
2022/03/12 05:28:25;;;;;;;;;;;;;;;;;;5004735;28;20040;-84
2022/03/12 05:30:52;;;;;;;;;;;;;;;;;;4997033;28;20577;-81
2022/03/12 05:33:18;;;;;;;;;;;;;;;;;;5004189;28;19999;-81
2022/03/12 05:35:45;;;;;;;;;;;;;;;;;;5004757;28;20014;-81
2022/03/12 05:38:12;;;;;;;;;;;;;;;;;;5003580;28;20433;-84
2022/03/12 05:40:39;;;;;;;;;;;;;;;;;;5004304;28;20033;-84
2022/03/12 05:43:07;;;;;;;;;;;;;;;;;;5005009;28;19990;-83
2022/03/12 05:45:33;;;;;;;;;;;;;;;;;;5004281;28;19994;-82
2022/03/12 05:47:59;;;;;;;;;;;;;;;;;;5004625;28;19997;-82
2022/03/12 05:50:27;;;;;;;;;;;;;;;;;;5004355;28;19990;-82
2022/03/12 05:52:52;;;;;;;;;;;;;;;;;;5004243;28;19990;-81
2022/03/12 05:55:18;;;;;;;;;;;;;;;;;;5000320;28;20415;-81
2022/03/12 05:57:44;;;;;;;;;;;;;;;;;;5003901;28;19998;-80
2022/03/12 06:00:11;;;;;;;;;;;;;;;;;;5001614;28;20064;-80
2022/03/12 06:02:37;;;;;;;;;;;;;;;;;;5002517;28;19992;-81
2022/03/12 06:05:04;;;;;;;;;;;;;;;;;;5000027;28;19986;-81
2022/03/12 06:07:32;;;;;;;;;;;;;;;;;;5004040;28;20010;-81
2022/03/12 06:09:58;;;;;;;;;;;;;;;;;;5003935;28;20441;-81
2022/03/12 06:12:26;;;;;;;;;;;;;;;;;;5002726;28;19999;-79
2022/03/12 06:14:56;;;;;;;;;;;;;;;;;;5003072;28;20103;-81
2022/03/12 06:17:24;;;;;;;;;;;;;;;;;;5002422;28;19990;-81
2022/03/12 06:19:50;;;;;;;;;;;;;;;;;;4999846;28;19986;-81
2022/03/12 06:22:16;;;;;;;;;;;;;;;;;;5003120;28;20000;-81
2022/03/12 06:24:42;;;;;;;;;;;;;;;;;;4999914;28;19990;-80
2022/03/12 06:27:08;;;;;;;;;;;;;;;;;;5001236;28;19997;-80
2022/03/12 06:29:35;;;;;;;;;;;;;;;;;;4995336;28;19995;-80
2022/03/12 06:32:01;;;;;;;;;;;;;;;;;;5002546;28;19986;-81
2022/03/12 06:34:28;;;;;;;;;;;;;;;;;;5001686;28;20010;-84
2022/03/12 06:36:54;;;;;;;;;;;;;;;;;;5003553;28;19991;-85
2022/03/12 06:39:20;;;;;;;;;;;;;;;;;;5003895;28;19993;-84
2022/03/12 06:41:46;;;;;;;;;;;;;;;;;;5003240;28;20085;-83
2022/03/12 06:44:15;;;;;;;;;;;;;;;;;;5003787;28;20089;-84
2022/03/12 06:46:41;;;;;;;;;;;;;;;;;;5003121;28;20496;-84
2022/03/12 06:49:07;;;;;;;;;;;;;;;;;;5003771;28;19990;-85
2022/03/12 06:51:33;;;;;;;;;;;;;;;;;;5003194;28;19997;-84
2022/03/12 06:53:59;;;;;;;;;;;;;;;;;;5003663;28;20002;-84
2022/03/12 06:56:26;;;;;;;;;;;;;;;;;;4999387;28;20445;-84
2022/03/12 06:58:52;;;;;;;;;;;;;;;;;;5002293;28;20014;-85
2022/03/12 07:01:18;;;;;;;;;;;;;;;;;;5003123;28;20034;-84
2022/03/12 07:03:44;;;;;;;;;;;;;;;;;;5000732;28;20861;-85
2022/03/12 07:06:10;;;;;;;;;;;;;;;;;;4998691;28;19998;-75
2022/03/12 07:08:36;;;;;;;;;;;;;;;;;;4998958;28;19997;-75
2022/03/12 07:11:02;;;;;;;;;;;;;;;;;;5000237;28;20032;-75
2022/03/12 07:13:28;;;;;;;;;;;;;;;;;;5002090;28;20088;-75
2022/03/12 07:15:54;;;;;;;;;;;;;;;;;;4995640;28;20014;-77
2022/03/12 07:18:20;;;;;;;;;;;;;;;;;;4997068;28;19995;-76
2022/03/12 07:20:46;;;;;;;;;;;;;;;;;;4992470;28;20058;-76
2022/03/12 07:23:12;;;;;;;;;;;;;;;;;;4998662;28;20474;-75
2022/03/12 07:25:38;;;;;;;;;;;;;;;;;;5002034;28;19991;-75
2022/03/12 07:28:04;;;;;;;;;;;;;;;;;;4998490;28;19995;-75
2022/03/12 07:30:30;;;;;;;;;;;;;;;;;;4996569;28;20013;-76
2022/03/12 07:32:56;;;;;;;;;;;;;;;;;;4993189;28;20500;-75
2022/03/12 07:35:22;;;;;;;;;;;;;;;;;;4998318;28;20010;-75
2022/03/12 07:37:49;;;;;;;;;;;;;;;;;;5000588;28;20363;-75
2022/03/12 07:40:15;;;;;;;;;;;;;;;;;;4997355;28;20018;-76
2022/03/12 07:42:42;;;;;;;;;;;;;;;;;;4994833;28;20017;-75
2022/03/12 07:45:08;;;;;;;;;;;;;;;;;;4996529;28;19994;-75
2022/03/12 07:47:34;;;;;;;;;;;;;;;;;;5000103;28;20366;-75
2022/03/12 07:50:00;;;;;;;;;;;;;;;;;;4997385;28;20417;-74
2022/03/12 07:52:26;;;;;;;;;;;;;;;;;;4999334;28;19994;-76
2022/03/12 07:54:51;;;;;;;;;;;;;;;;;;4997982;28;20010;-78
2022/03/12 07:57:17;;;;;;;;;;;;;;;;;;4998754;28;19990;-81
2022/03/12 07:59:44;;;;;;;;;;;;;;;;;;4993225;28;20113;-80
2022/03/12 08:02:10;;;;;;;;;;;;;;;;;;4993945;28;20022;-79
2022/03/12 08:04:36;;;;;;;;;;;;;;;;;;4994573;28;21035;-78
2022/03/12 08:07:02;;;;;;;;;;;;;;;;;;4994487;28;19990;-79
2022/03/12 08:09:28;;;;;;;;;;;;;;;;;;4995546;28;19994;-84
2022/03/12 08:11:54;;;;;;;;;;;;;;;;;;4994701;28;20359;-80
2022/03/12 08:14:22;;;;;;;;;;;;;;;;;;4997091;28;20073;-83
2022/03/12 08:16:48;;;;;;;;;;;;;;;;;;4992513;28;19995;-81
2022/03/12 08:19:14;;;;;;;;;;;;;;;;;;4995997;28;20005;-82
2022/03/12 08:21:41;;;;;;;;;;;;;;;;;;4994985;28;19990;-81
2022/03/12 08:24:07;;;;;;;;;;;;;;;;;;4990204;28;20012;-81
2022/03/12 08:26:34;;;;;;;;;;;;;;;;;;4996912;28;19990;-78
2022/03/12 08:29:00;;;;;;;;;;;;;;;;;;4988650;28;20042;-81
2022/03/12 08:31:26;;;;;;;;;;;;;;;;;;4995051;28;20051;-79
2022/03/12 08:33:52;;;;;;;;;;;;;;;;;;4987874;28;19994;-79
2022/03/12 08:36:18;;;;;;;;;;;;;;;;;;4997754;28;20010;-80
2022/03/12 08:38:44;;;;;;;;;;;;;;;;;;4991560;28;20045;-88
2022/03/12 08:41:11;;;;;;;;;;;;;;;;;;4993114;28;20706;-85
2022/03/12 08:43:37;;;;;;;;;;;;;;;;;;4991227;28;20497;-85
2022/03/12 08:46:03;;;;;;;;;;;;;;;;;;4989544;28;20081;-84
2022/03/12 08:48:30;;;;;;;;;;;;;;;;;;4992026;28;20128;-85
2022/03/12 08:50:56;;;;;;;;;;;;;;;;;;4994114;28;21763;-84
2022/03/12 08:53:21;;;;;;;;;;;;;;;;;;4992454;28;19997;-81
2022/03/12 08:55:47;;;;;;;;;;;;;;;;;;5002367;28;20010;-83
2022/03/12 08:58:13;;;;;;;;;;;;;;;;;;4999331;28;20025;-81
2022/03/12 09:00:39;;;;;;;;;;;;;;;;;;4996735;28;20080;-83
2022/03/12 09:03:05;;;;;;;;;;;;;;;;;;4999074;28;20034;-81
2022/03/12 09:05:31;;;;;;;;;;;;;;;;;;5002598;28;20064;-85
2022/03/12 09:07:57;;;;;;;;;;;;;;;;;;5001968;28;21435;-82
2022/03/12 09:10:23;;;;;;;;;;;;;;;;;;5000628;28;19995;-83
2022/03/12 09:12:49;;;;;;;;;;;;;;;;;;4994545;28;20647;-81
2022/03/12 09:15:16;;;;;;;;;;;;;;;;;;4992805;28;20014;-83
2022/03/12 09:17:42;;;;;;;;;;;;;;;;;;4991518;28;20064;-83
2022/03/12 09:20:08;;;;;;;;;;;;;;;;;;4997443;28;19982;-82
2022/03/12 09:22:34;;;;;;;;;;;;;;;;;;5001017;28;19995;-82
2022/03/12 09:25:03;;;;;;;;;;;;;;;;;;4994103;28;21495;-83
2022/03/12 09:27:29;;;;;;;;;;;;;;;;;;4996641;28;19994;-80
2022/03/12 09:29:55;;;;;;;;;;;;;;;;;;4998538;28;20013;-85
2022/03/12 09:32:22;;;;;;;;;;;;;;;;;;4992671;28;19990;-81
2022/03/12 09:34:48;;;;;;;;;;;;;;;;;;4998003;28;20097;-83
2022/03/12 09:37:14;;;;;;;;;;;;;;;;;;4997476;28;20386;-84
2022/03/12 09:39:40;;;;;;;;;;;;;;;;;;4997929;28;19986;-85
2022/03/12 09:42:06;;;;;;;;;;;;;;;;;;4996463;28;19998;-85
2022/03/12 09:44:32;;;;;;;;;;;;;;;;;;4997803;28;20013;-84
2022/03/12 09:46:58;;;;;;;;;;;;;;;;;;4998238;28;20045;-84
2022/03/12 09:49:24;;;;;;;;;;;;;;;;;;4997927;28;20063;-82
2022/03/12 09:51:50;;;;;;;;;;;;;;;;;;4997555;28;21240;-84
2022/03/12 09:54:18;;;;;;;;;;;;;;;;;;4997559;28;19994;-85
2022/03/12 09:56:43;;;;;;;;;;;;;;;;;;4998754;28;20001;-83
2022/03/12 09:59:10;;;;;;;;;;;;;;;;;;4997311;28;20010;-82
2022/03/12 10:01:35;;;;;;;;;;;;;;;;;;4995394;28;19997;-83
2022/03/12 10:04:01;;;;;;;;;;;;;;;;;;4995504;28;19990;-85
2022/03/12 10:06:31;;;;;;;;;;;;;;;;;;4997432;28;20017;-82
2022/03/12 10:08:57;;;;;;;;;;;;;;;;;;4996819;28;20422;-79
2022/03/12 10:11:23;;;;;;;;;;;;;;;;;;4997490;28;19993;-83
2022/03/12 10:13:49;;;;;;;;;;;;;;;;;;4997210;28;20117;-80
2022/03/12 10:16:15;;;;;;;;;;;;;;;;;;4997391;28;20025;-81
2022/03/12 10:18:41;;;;;;;;;;;;;;;;;;4995420;28;20048;-81
2022/03/12 10:21:07;;;;;;;;;;;;;;;;;;4994818;28;20141;-84
2022/03/12 10:23:34;;;;;;;;;;;;;;;;;;4997696;28;19986;-84
2022/03/12 10:26:00;;;;;;;;;;;;;;;;;;5002732;28;19990;-85
2022/03/12 10:28:29;;;;;;;;;;;;;;;;;;5004694;28;20047;-85
2022/03/12 10:30:55;;;;;;;;;;;;;;;;;;4998772;28;20064;-85
2022/03/12 10:33:21;;;;;;;;;;;;;;;;;;4998274;28;20021;-84
2022/03/12 10:35:47;;;;;;;;;;;;;;;;;;4997785;28;20607;-80
2022/03/12 10:38:13;;;;;;;;;;;;;;;;;;4996028;28;19994;-80
2022/03/12 10:40:39;;;;;;;;;;;;;;;;;;4994611;28;19990;-81
2022/03/12 10:43:12;;;;;;;;;;;;;;;;;;4996960;28;20013;-81
2022/03/12 10:45:38;;;;;;;;;;;;;;;;;;4996798;28;19994;-78
2022/03/12 10:48:05;;;;;;;;;;;;;;;;;;4997387;28;20040;-79
2022/03/12 10:50:31;;;;;;;;;;;;;;;;;;5001076;28;20707;-80
2022/03/12 10:52:57;;;;;;;;;;;;;;;;;;4998352;28;20093;-81
2022/03/12 10:55:23;;;;;;;;;;;;;;;;;;4997825;28;20021;-85
2022/03/12 10:57:49;;;;;;;;;;;;;;;;;;4995536;28;20466;-80
2022/03/12 11:00:15;;;;;;;;;;;;;;;;;;4997775;28;20018;-78
2022/03/12 11:02:42;;;;;;;;;;;;;;;;;;4994107;28;19990;-80
2022/03/12 11:05:08;;;;;;;;;;;;;;;;;;4996847;28;20378;-80
2022/03/12 11:07:34;;;;;;;;;;;;;;;;;;4996435;28;19994;-80
2022/03/12 11:10:00;;;;;;;;;;;;;;;;;;4985920;28;20466;-79
2022/03/12 11:12:30;;;;;;;;;;;;;;;;;;4996159;28;20044;-78
2022/03/12 11:15:01;;;;;;;;;;;;;;;;;;4996244;28;20015;-80
2022/03/12 11:17:26;;;;;;;;;;;;;;;;;;4996719;28;20083;-81
2022/03/12 11:19:57;;;;;;;;;;;;;;;;;;4995077;28;20518;-78
2022/03/12 11:22:23;;;;;;;;;;;;;;;;;;4995982;28;20462;-78
2022/03/12 11:24:49;;;;;;;;;;;;;;;;;;4996610;28;20001;-79
2022/03/12 11:27:18;;;;;;;;;;;;;;;;;;4996612;28;20088;-78
2022/03/12 11:29:44;;;;;;;;;;;;;;;;;;4995617;28;20462;-78
2022/03/12 11:32:10;;;;;;;;;;;;;;;;;;4996991;28;20093;-79
2022/03/12 11:34:36;;;;;;;;;;;;;;;;;;4994615;28;20010;-81
2022/03/12 11:37:06;;;;;;;;;;;;;;;;;;4994141;28;20100;-80
2022/03/12 11:39:32;;;;;;;;;;;;;;;;;;4995364;28;19994;-80
2022/03/12 11:41:58;;;;;;;;;;;;;;;;;;4996456;28;20001;-80
2022/03/12 11:44:25;;;;;;;;;;;;;;;;;;4995168;28;20525;-78
2022/03/12 11:46:51;;;;;;;;;;;;;;;;;;4998276;28;20031;-77
2022/03/12 11:49:18;;;;;;;;;;;;;;;;;;4996824;28;19994;-77
2022/03/12 11:51:45;;;;;;;;;;;;;;;;;;4990642;28;19994;-77
2022/03/12 11:54:10;;;;;;;;;;;;;;;;;;4997395;28;19994;-76
2022/03/12 11:56:38;;;;;;;;;;;;;;;;;;4994986;28;20740;-78
2022/03/12 11:59:04;;;;;;;;;;;;;;;;;;4993881;28;20100;-78
2022/03/12 12:01:29;;;;;;;;;;;;;;;;;;4995095;28;20001;-78
2022/03/12 12:03:56;;;;;;;;;;;;;;;;;;4996982;28;19990;-79
2022/03/12 12:06:22;;;;;;;;;;;;;;;;;;4999472;28;20373;-80
2022/03/12 12:08:48;;;;;;;;;;;;;;;;;;4994146;28;20446;-80
2022/03/12 12:11:15;;;;;;;;;;;;;;;;;;4999807;28;20029;-81
2022/03/12 12:13:44;;;;;;;;;;;;;;;;;;4999035;28;19990;-81
2022/03/12 12:16:11;;;;;;;;;;;;;;;;;;4999155;28;20016;-81
2022/03/12 12:18:37;;;;;;;;;;;;;;;;;;4996317;28;20086;-80
2022/03/12 12:21:03;;;;;;;;;;;;;;;;;;5000121;28;19990;-81
2022/03/12 12:23:29;;;;;;;;;;;;;;;;;;5002427;28;20464;-81
2022/03/12 12:25:55;;;;;;;;;;;;;;;;;;5005635;28;19991;-82
2022/03/12 12:28:22;;;;;;;;;;;;;;;;;;5002755;28;20000;-79
2022/03/12 12:30:48;;;;;;;;;;;;;;;;;;5005872;28;19990;-80
2022/03/12 12:33:14;;;;;;;;;;;;;;;;;;4996958;28;19997;-80
2022/03/12 12:35:40;;;;;;;;;;;;;;;;;;5003143;28;20051;-80
2022/03/12 12:38:07;;;;;;;;;;;;;;;;;;5003893;28;20678;-81
2022/03/12 12:40:35;;;;;;;;;;;;;;;;;;5005546;28;20434;-80
2022/03/12 12:43:02;;;;;;;;;;;;;;;;;;5005462;28;19990;-80
2022/03/12 12:45:28;;;;;;;;;;;;;;;;;;5003320;28;20119;-80
2022/03/12 12:47:54;;;;;;;;;;;;;;;;;;5005059;28;23568;-81
2022/03/12 12:50:20;;;;;;;;;;;;;;;;;;5003007;28;20080;-80
2022/03/12 12:52:46;;;;;;;;;;;;;;;;;;5004102;28;20086;-80
2022/03/12 12:55:12;;;;;;;;;;;;;;;;;;5002119;28;20011;-80
2022/03/12 12:57:39;;;;;;;;;;;;;;;;;;5003407;28;20378;-80
2022/03/12 13:00:05;;;;;;;;;;;;;;;;;;5003967;28;20112;-80
2022/03/12 13:02:31;;;;;;;;;;;;;;;;;;5003732;28;20851;-81
2022/03/12 13:04:57;;;;;;;;;;;;;;;;;;5003129;28;19987;-80
2022/03/12 13:07:23;;;;;;;;;;;;;;;;;;5004716;28;20440;-80
2022/03/12 13:09:49;;;;;;;;;;;;;;;;;;5004057;28;19990;-80
2022/03/12 13:12:15;;;;;;;;;;;;;;;;;;4991477;28;19998;-80
2022/03/12 13:14:41;;;;;;;;;;;;;;;;;;5005010;28;20060;-81
2022/03/12 13:17:07;;;;;;;;;;;;;;;;;;5003758;28;19998;-81
2022/03/12 13:19:33;;;;;;;;;;;;;;;;;;5004207;28;19991;-80
2022/03/12 13:21:59;;;;;;;;;;;;;;;;;;4999239;28;19996;-80
2022/03/12 13:24:25;;;;;;;;;;;;;;;;;;4998723;28;19994;-81
2022/03/12 13:26:51;;;;;;;;;;;;;;;;;;5001420;28;20036;-80
2022/03/12 13:29:17;;;;;;;;;;;;;;;;;;5004468;28;20081;-81
2022/03/12 13:31:44;;;;;;;;;;;;;;;;;;5002034;28;19989;-80
2022/03/12 13:34:10;;;;;;;;;;;;;;;;;;4997786;28;20105;-79
2022/03/12 13:36:36;;;;;;;;;;;;;;;;;;5003640;28;20016;-80
2022/03/12 13:39:02;;;;;;;;;;;;;;;;;;5004126;28;20089;-79
2022/03/12 13:41:28;;;;;;;;;;;;;;;;;;5004268;28;19988;-80
2022/03/12 13:43:54;;;;;;;;;;;;;;;;;;5003896;28;19997;-80
2022/03/12 13:46:19;;;;;;;;;;;;;;;;;;5003561;28;19990;-79
2022/03/12 13:48:45;;;;;;;;;;;;;;;;;;5003174;28;20085;-79
2022/03/12 13:51:12;;;;;;;;;;;;;;;;;;5003552;28;19990;-83
2022/03/12 13:53:39;;;;;;;;;;;;;;;;;;5004286;28;19993;-81
2022/03/12 13:56:05;;;;;;;;;;;;;;;;;;5004042;28;20155;-79
2022/03/12 13:58:31;;;;;;;;;;;;;;;;;;5003522;28;20120;-82
2022/03/12 14:01:00;;;;;;;;;;;;;;;;;;5003133;28;19994;-82
2022/03/12 14:03:26;;;;;;;;;;;;;;;;;;5003115;28;20088;-83
2022/03/12 14:05:52;;;;;;;;;;;;;;;;;;5002096;28;19986;-82
2022/03/12 14:08:19;;;;;;;;;;;;;;;;;;5004032;28;20028;-82
2022/03/12 14:10:49;;;;;;;;;;;;;;;;;;5003172;28;19994;-80
2022/03/12 14:13:18;;;;;;;;;;;;;;;;;;5002897;28;20072;-83
2022/03/12 14:15:44;;;;;;;;;;;;;;;;;;5002202;28;20105;-81
2022/03/12 14:18:10;;;;;;;;;;;;;;;;;;5003971;28;20089;-83
2022/03/12 14:20:36;;;;;;;;;;;;;;;;;;5000692;28;19990;-86
2022/03/12 14:23:02;;;;;;;;;;;;;;;;;;5004701;28;20080;-86
2022/03/12 14:25:28;;;;;;;;;;;;;;;;;;5004802;28;20101;-80
2022/03/12 14:27:54;;;;;;;;;;;;;;;;;;5003956;28;20480;-79
2022/03/12 14:30:19;;;;;;;;;;;;;;;;;;5004458;28;20421;-80
2022/03/12 14:32:46;;;;;;;;;;;;;;;;;;5004118;28;20339;-79
2022/03/12 14:35:12;;;;;;;;;;;;;;;;;;5004633;28;20009;-80
2022/03/12 14:37:38;;;;;;;;;;;;;;;;;;5003914;28;19994;-78
2022/03/12 14:40:04;;;;;;;;;;;;;;;;;;5003809;28;19990;-79
2022/03/12 14:42:31;;;;;;;;;;;;;;;;;;4996036;28;20001;-81
2022/03/12 14:44:57;;;;;;;;;;;;;;;;;;5002965;28;20073;-80
2022/03/12 14:47:23;;;;;;;;;;;;;;;;;;5004403;28;20026;-80
2022/03/12 14:49:49;;;;;;;;;;;;;;;;;;5003756;28;20351;-80
2022/03/12 14:52:15;;;;;;;;;;;;;;;;;;5003876;28;19994;-80
2022/03/12 14:54:42;;;;;;;;;;;;;;;;;;5003324;28;20489;-80
2022/03/12 14:57:08;;;;;;;;;;;;;;;;;;5003695;28;20449;-79
2022/03/12 14:59:34;;;;;;;;;;;;;;;;;;4997924;28;20019;-79
2022/03/12 15:02:00;;;;;;;;;;;;;;;;;;5002979;28;20001;-78
2022/03/12 15:04:25;;;;;;;;;;;;;;;;;;5002687;28;19993;-79
2022/03/12 15:06:54;;;;;;;;;;;;;;;;;;5004025;28;20668;-78
2022/03/12 15:09:20;;;;;;;;;;;;;;;;;;4999710;28;20000;-79
2022/03/12 15:11:47;;;;;;;;;;;;;;;;;;5003569;28;19986;-79
2022/03/12 15:14:14;;;;;;;;;;;;;;;;;;5001442;28;20070;-80
2022/03/12 15:16:40;;;;;;;;;;;;;;;;;;5003407;28;20021;-83
2022/03/12 15:19:06;;;;;;;;;;;;;;;;;;4999365;28;20632;-83
2022/03/12 15:21:31;;;;;;;;;;;;;;;;;;4991669;28;19986;-82
2022/03/12 15:23:57;;;;;;;;;;;;;;;;;;5003085;28;19995;-80
2022/03/12 15:26:25;;;;;;;;;;;;;;;;;;5003951;28;20357;-80
2022/03/12 15:28:51;;;;;;;;;;;;;;;;;;5002572;28;20080;-81
2022/03/12 15:31:17;;;;;;;;;;;;;;;;;;5001336;28;20104;-80
2022/03/12 15:33:43;;;;;;;;;;;;;;;;;;5000874;28;20048;-79
2022/03/12 15:36:09;;;;;;;;;;;;;;;;;;5001589;28;20679;-83
2022/03/12 15:38:37;;;;;;;;;;;;;;;;;;5002912;28;20481;-79
2022/03/12 15:41:03;;;;;;;;;;;;;;;;;;5002484;28;20524;-80
2022/03/12 15:43:29;;;;;;;;;;;;;;;;;;5002106;28;20036;-79
2022/03/12 15:45:55;;;;;;;;;;;;;;;;;;5002273;28;19990;-80
2022/03/12 15:48:20;;;;;;;;;;;;;;;;;;5002012;28;19998;-82
2022/03/12 15:50:46;;;;;;;;;;;;;;;;;;5002425;28;20489;-80
2022/03/12 15:53:13;;;;;;;;;;;;;;;;;;4998183;28;20065;-79
2022/03/12 15:55:39;;;;;;;;;;;;;;;;;;5001136;28;20010;-80
2022/03/12 15:58:08;;;;;;;;;;;;;;;;;;5002886;28;20707;-79
2022/03/12 16:00:34;;;;;;;;;;;;;;;;;;5003818;28;19996;-81
2022/03/12 16:03:00;;;;;;;;;;;;;;;;;;5005403;28;19990;-78
2022/03/12 16:05:26;;;;;;;;;;;;;;;;;;5005631;28;20093;-79
2022/03/12 16:07:52;;;;;;;;;;;;;;;;;;5005284;28;20533;-79